West Grove, Iowa
Current Conditions -  °F | °C
As of 4:30 PM on Monday 26 Jan 2015 (Local Time) from KTVK Reporting Station
Clear Clear  
Wind Chill: 43°   Ceiling: Unl
Heat Index: 48°   Visibility: 10mi
Dew Point: 37°   Wind: 14mph
Humidity: 66%   Direction: 310°NW
Pressure: 29.87"   Gusts: NA
Location:  40.72°N, 92.56°W
Report Text: KTVK 262230Z AUTO 31012KT 10SM CLR 09/03 A2987 RMK AO2
Loading
Personal Weather Stations






























Interactive Weather Map New forecast layout! Learn more

10-Day Weather Forecast

Advertisements
Track Severe Weather on mobile